Webcam op het Zuiden Meer informatie Webcam op het Zuiden


Webcam op het Westen Meer informatie Webcam op het Westen


Onweer radar Meer informatie blitzortung!


Regen radar  rain snow radar


Lokaal brand risico:
CBI


Regionaal brand risico: Meer informatie


Lokaal brand risico:
Gebaseerd op actuele waarde
CBI


Bezoek ook deze websites:

Template documentation
and downloads

And another site



Het weer levert geen direct gevaar op.    Er zijn geen waarschuwingen afgegeven.

METAR rapporten vliegvelden

   
ETWM - Meppen, Germany
Afstand tot: O 29 km
Gewijzigd: 24-09-2020 14:20
Verouderd
Licht bewolkt  
Licht bewolkt  
   Wind: ZZW 16.7 km/h
Wind: ZZW 16.7 km/h
Temperatuur: 18°C
Dauwpunt: 7°C
Vochtigheid: 49%
Barometer: 1002 hPa
Bewolking: Licht bewolkt
Zicht: meer dan 10 km
Bewolking: Licht bewolkt 4200 ft
ETWM 241220Z 20009KT 9999 FEW042 18/07 Q1002 BLU+
EHGG - Groningen/Eelde, Netherlands
Afstand tot: NNW 47 km
Gewijzigd: 01-10-2020 09:55
Gedeeltelijk bewolkt  
Gedeeltelijk bewolkt  
   Wind: ZO 13 km/h
Wind: ZO 13 km/h
Temperatuur: 13°C
Dauwpunt: 11°C
Vochtigheid: 88%
Barometer: 1002 hPa
Bewolking: Gedeeltelijk bewolkt
Zicht: meer dan 10 km
Bewolking: Gedeeltelijk bewolkt
EHGG 010755Z AUTO 13007KT 080V180 9999 NSC 13/11 Q1002 NOSIG
EDDG - Muenster/Osnabru, Germany
Afstand tot: ZO 87 km
Gewijzigd: 01-10-2020 09:50
Helder  
Helder  
   Wind: OZO 11.1 km/h
Wind: OZO 11.1 km/h
Temperatuur: 13°C
Dauwpunt: 11°C
Vochtigheid: 88%
Barometer: 1003 hPa
Zicht: meer dan 10 km
Bewolking: Helder
EDDG 010750Z 12006KT 080V160 CAVOK 13/11 Q1003 NOSIG
EHLW - Leeuwarden Rnlaf, Netherlands
Afstand tot: NW 93 km
Gewijzigd: 01-10-2020 09:55
Nevel, Bewolking  
Nevel, Bewolking  
   Wind: ZO 20.4 km/h
Wind: ZO 20.4 km/h
Temperatuur: 13°C
Dauwpunt: 11°C
Vochtigheid: 88%
Barometer: 1001 hPa
Bewolking: Bewolking
Zicht: 9 km
Bewolking: Gedeeltelijk bewolkt 6100 ft,
Bewolking 8000 ft
EHLW 010755Z AUTO 13011KT 100V170 9000 BR SCT061 OVC080 13/11 Q1001 BLU NOSIG
ETNT - Wittmundhaven(Ga, Germany
Afstand tot: NNO 100 km
Gewijzigd: 01-10-2020 09:33
Grotendeels bewolkt  
Grotendeels bewolkt  
   Wind: OZO 14.8 km/h
Wind: OZO 14.8 km/h
Temperatuur: 13°C
Dauwpunt: 11°C
Vochtigheid: 88%
Barometer: 1004 hPa
Bewolking: Grotendeels bewolkt
Zicht: 8 km
Bewolking: Grotendeels bewolkt 15000 ft,
Grotendeels bewolkt 18000 ft
ETNT 010733Z 12008KT 8000 BKN150 BKN180 13/11 Q1004 BLU BLU
ETND - Diepholz (ger-Af, Germany
Afstand tot: O 104 km
Gewijzigd: 01-10-2020 09:35
Grotendeels bewolkt  
Grotendeels bewolkt  
   Wind: OZO 13 km/h
Wind: OZO 13 km/h
Temperatuur: 13°C
Dauwpunt: 11°C
Vochtigheid: 88%
Barometer: 1005 hPa
Bewolking: Grotendeels bewolkt
Zicht: 8 km
Bewolking: Gedeeltelijk bewolkt 19000 ft,
Grotendeels bewolkt 26000 ft
ETND 010735Z 11007KT 8000 SCT190 BKN260 13/11 Q1005 BLU+
ETNT - Wittmundhaven(Ga, Germany
Afstand tot: NNO 102 km
Gewijzigd: 01-10-2020 09:33
Grotendeels bewolkt  
Grotendeels bewolkt  
   Wind: OZO 14.8 km/h
Wind: OZO 14.8 km/h
Temperatuur: 13°C
Dauwpunt: 11°C
Vochtigheid: 88%
Barometer: 1004 hPa
Bewolking: Grotendeels bewolkt
Zicht: 8 km
Bewolking: Grotendeels bewolkt 15000 ft,
Grotendeels bewolkt 18000 ft
ETNT 010733Z 12008KT 8000 BKN150 BKN180 13/11 Q1004 BLU BLU
EHDL - Deelen Rnlafb, Netherlands
Afstand tot: ZW 103 km
Gewijzigd: 01-10-2020 09:55
Nevel, Grotendeels bewolkt  
Nevel, Grotendeels bewolkt  
   Wind: ZO 16.7 km/h
Wind: ZO 16.7 km/h
Temperatuur: 14°C
Dauwpunt: 12°C
Vochtigheid: 88%
Barometer: 1001 hPa
Bewolking: Grotendeels bewolkt
Zicht: 9 km
Bewolking: Gedeeltelijk bewolkt 3600 ft,
Grotendeels bewolkt 4100 ft,
Grotendeels bewolkt 4900 ft
EHDL 010755Z AUTO 14009KT 090V210 9000 BR SCT036 BKN041 BKN049 14/12 Q1001 BLU
EHMA - Awg-1 Sea, Netherlands
Afstand tot: NW 105 km
Gewijzigd: 01-10-2020 09:55
Grotendeels bewolkt  
Grotendeels bewolkt  
   Wind: ZO 40.7 km/h
Wind: ZO 40.7 km/h
Temperatuur: 13°C
Dauwpunt: 11°C
Vochtigheid: 88%
Barometer: 1001 hPa
Bewolking: Grotendeels bewolkt
Zicht: 9 km
Bewolking: Licht bewolkt 3200 ft,
Grotendeels bewolkt 3600 ft,
Grotendeels bewolkt 4300 ft
EHMA 010755Z AUTO 13022KT 9000 FEW032 BKN036 BKN043 13/11 Q1001
EDDW - Bremen, Germany
Afstand tot: ONO 135 km
Gewijzigd: 01-10-2020 09:50
Helder  
Helder  
   Wind: OZO 22.2 km/h
Wind: OZO 22.2 km/h
Temperatuur: 14°C
Dauwpunt: 11°C
Vochtigheid: 82%
Barometer: 1005 hPa
Zicht: meer dan 10 km
Bewolking: Helder
EDDW 010750Z 12012KT CAVOK 14/11 Q1005 NOSIG
EHVL - Vlieland Island, Netherlands
Afstand tot: WNW 138 km
Gewijzigd: 01-10-2020 10:11
Nevel, Bewolking  
Nevel, Bewolking  
   Wind: ZO 38.9 km/h
Wind: ZO 38.9 km/h
Temperatuur: 14°C
Dauwpunt: 13°C
Vochtigheid: 94%
Barometer: 999 hPa
Bewolking: Bewolking
Zicht: 6 km
Bewolking: Licht bewolkt 700 ft,
Gedeeltelijk bewolkt 1000 ft,
Gedeeltelijk bewolkt 1500 ft,
Bewolking 7800 ft
EHVL 010811Z AUTO 14021KT 6000 BR FEW007 SCT010 SCT015CB OVC078 14/13 Q0999 GRN
EDLV - Niederrhein, Germany
Afstand tot: ZZW 139 km
Gewijzigd: 01-10-2020 09:50
Helder  
Helder  
   Wind: ZO 18.5 km/h
Wind: ZO 18.5 km/h
Temperatuur: 14°C
Dauwpunt: 12°C
Vochtigheid: 88%
Barometer: 1002 hPa
Zicht: meer dan 10 km
Bewolking: Helder
EDLV 010750Z 14010KT CAVOK 14/12 Q1002
EHKD - De Kooy (navy), Netherlands
Afstand tot: W 144 km
Gewijzigd: 01-10-2020 10:13
Bewolking  
Bewolking  
   Wind: ZO 16.7 km/h
Wind: ZO 16.7 km/h
Temperatuur: 15°C
Dauwpunt: 13°C
Vochtigheid: 88%
Barometer: 999 hPa
Bewolking: Bewolking
Zicht: meer dan 10 km
Bewolking: Licht bewolkt 800 ft,
Gedeeltelijk bewolkt 1200 ft,
Bewolking 8100 ft
EHKD 010813Z AUTO 14009KT 110V190 9999 FEW008 SCT012 OVC081 15/13 Q0999 GRN TEMPO FEW006 SCT009 BKN070
EDLW - Dortmund/Wickede, Germany
Afstand tot: ZZO 150 km
Gewijzigd: 01-10-2020 09:50
Helder  
Helder  
   Wind: ZZO 16.7 km/h
Wind: ZZO 16.7 km/h
Temperatuur: 14°C
Dauwpunt: 11°C
Vochtigheid: 82%
Barometer: 1003 hPa
Zicht: meer dan 10 km
Bewolking: Helder
EDLW 010750Z 15009KT 120V190 CAVOK 14/11 Q1003
EHVK - Volkel Rnlafb, Netherlands
Afstand tot: ZZW 149 km
Gewijzigd: 01-10-2020 09:55
Bewolking  
Bewolking  
   Wind: ZO 16.7 km/h
Wind: ZO 16.7 km/h
Temperatuur: 14°C
Dauwpunt: 11°C
Vochtigheid: 82%
Barometer: 1001 hPa
Bewolking: Bewolking
Zicht: meer dan 10 km
Bewolking: Bewolking 6500 ft
EHVK 010755Z AUTO 14009KT 100V170 9999 OVC065 14/11 Q1001 BLU NOSIG
EDLW - Dortmund/Wickede, Germany
Afstand tot: ZZO 150 km
Gewijzigd: 01-10-2020 09:50
Helder  
Helder  
   Wind: ZZO 16.7 km/h
Wind: ZZO 16.7 km/h
Temperatuur: 14°C
Dauwpunt: 11°C
Vochtigheid: 82%
Barometer: 1003 hPa
Zicht: meer dan 10 km
Bewolking: Helder
EDLW 010750Z 15009KT 120V190 CAVOK 14/11 Q1003
EHMG - L9-Ff-1 Sea, Netherlands
Afstand tot: NW 155 km
Gewijzigd: 01-10-2020 09:55
Wat regen mogelijk, Licht bewolkt  
Wat regen mogelijk, Licht bewolkt  
   Wind: ZZO 44.4 km/h
Wind: ZZO 44.4 km/h
Temperatuur: 15°C
Dauwpunt: 14°C
Vochtigheid: 94%
Barometer: 1000 hPa
Bewolking: Licht bewolkt
Zicht: meer dan 10 km
Bewolking: Licht bewolkt 600 ft
EHMG 010755Z AUTO 16024KT 9999 -RA FEW006 15/14 Q1000 RERA REDZ
ETHB - Buckeburg(Ger-Ar, Germany
Afstand tot: OZO 161 km
Gewijzigd: 01-10-2020 09:20
Grotendeels bewolkt  
Grotendeels bewolkt  
   Wind: ZZO 14.8 km/h
Wind: ZZO 14.8 km/h
Temperatuur: 15°C
Dauwpunt: 11°C
Vochtigheid: 77%
Barometer: 1005 hPa
Bewolking: Grotendeels bewolkt
Zicht: meer dan 10 km
Bewolking: Licht bewolkt 1400 ft,
Grotendeels bewolkt 18000 ft
ETHB 010720Z 16008KT 9999 FEW014 BKN180 15/11 Q1005 BLU BLU
ETMN - Nordholz (ger-Na, Germany
Afstand tot: NO 164 km
Gewijzigd: 01-10-2020 09:20
Shallow Fog, Grotendeels bewolkt  
Shallow Fog, Grotendeels bewolkt  
   Wind: OZO 16.7 km/h
Wind: OZO 16.7 km/h
Temperatuur: 13°C
Dauwpunt: 10°C
Vochtigheid: 82%
Barometer: 1005 hPa
Bewolking: Grotendeels bewolkt
Zicht: 8 km
Bewolking: Grotendeels bewolkt 20000 ft
ETMN 010720Z 12009KT 8000 MIFG BKN200 13/10 Q1005 BLU+BLU+
EDDL - Duesseldorf, Germany
Afstand tot: Z 165 km
Gewijzigd: 01-10-2020 09:50
Grotendeels bewolkt  
Grotendeels bewolkt  
   Wind: ZZO 25.9 km/h
Wind: ZZO 25.9 km/h
Temperatuur: 14°C
Dauwpunt: 11°C
Vochtigheid: 82%
Barometer: 1002 hPa
Bewolking: Grotendeels bewolkt
Zicht: meer dan 10 km
Bewolking: Grotendeels bewolkt 4800 ft
EDDL 010750Z 15014KT 9999 BKN048 14/11 Q1002 NOSIG
EDLN - Monchengladbach, Germany
Afstand tot: Z 174 km
Gewijzigd: 01-10-2020 09:50
Gedeeltelijk bewolkt  
Gedeeltelijk bewolkt  
   Wind: ZO 11.1 km/h
Wind: ZO 11.1 km/h
Temperatuur: 13°C
Dauwpunt: 11°C
Vochtigheid: 88%
Barometer: 1002 hPa
Bewolking: Gedeeltelijk bewolkt
Zicht: 8 km
Bewolking: Gedeeltelijk bewolkt 4900 ft
EDLN 010750Z 14006KT 8000 SCT049 13/11 Q1002

Script ontwikkeld door  Saratoga-weather.org Aangepast voor de template door  Weerstation Leuven

U vindt ons ook hier:

Het Weer Aktueel

European Weather Network

Weather Underground

Wetterpage 24

Apparatuur in gebruik:

Weerstation
Davis VP2

Weerprogramma
Meteohub

Hardware
RaspberryPI, Wireless Weather Envoy, MeteoStick, TP-Link MR3020

Leverancier
Weerhuisje.nl weerstations

Davis VP2

Meteohub

RaspberryPI, Wireless Weather Envoy, MeteoStick, TP-Link MR3020

Weerhuisje.nl weerstations